sensor_id;sensor_type;location;lat;lon;timestamp;P1;durP1;ratioP1;P2;durP2;ratioP2
75261;SDS011;63859;51.064;4.580;2023-08-01T00:02:12;6.68;;;3.42;;
75261;SDS011;63859;51.064;4.580;2023-08-01T00:04:38;4.40;;;3.40;;
75261;SDS011;63859;51.064;4.580;2023-08-01T00:07:03;5.22;;;3.30;;
75261;SDS011;63859;51.064;4.580;2023-08-01T00:09:29;8.70;;;3.80;;
75261;SDS011;63859;51.064;4.580;2023-08-01T00:11:55;7.20;;;4.60;;
75261;SDS011;63859;51.064;4.580;2023-08-01T00:14:20;8.38;;;4.13;;
75261;SDS011;63859;51.064;4.580;2023-08-01T00:16:49;7.22;;;3.88;;
75261;SDS011;63859;51.064;4.580;2023-08-01T00:19:15;8.50;;;4.38;;
75261;SDS011;63859;51.064;4.580;2023-08-01T00:21:41;5.93;;;4.60;;
75261;SDS011;63859;51.064;4.580;2023-08-01T00:24:06;8.13;;;4.47;;
75261;SDS011;63859;51.064;4.580;2023-08-01T00:26:33;6.25;;;4.35;;
75261;SDS011;63859;51.064;4.580;2023-08-01T00:28:59;9.75;;;4.50;;
75261;SDS011;63859;51.064;4.580;2023-08-01T00:31:24;10.65;;;4.85;;
75261;SDS011;63859;51.064;4.580;2023-08-01T00:33:50;5.72;;;4.00;;
75261;SDS011;63859;51.064;4.580;2023-08-01T00:36:16;9.63;;;4.90;;
75261;SDS011;63859;51.064;4.580;2023-08-01T00:38:41;10.00;;;4.68;;
75261;SDS011;63859;51.064;4.580;2023-08-01T00:41:08;7.70;;;4.57;;
75261;SDS011;63859;51.064;4.580;2023-08-01T00:43:35;9.13;;;4.95;;
75261;SDS011;63859;51.064;4.580;2023-08-01T00:46:00;9.93;;;5.18;;
75261;SDS011;63859;51.064;4.580;2023-08-01T00:48:28;10.55;;;5.53;;
75261;SDS011;63859;51.064;4.580;2023-08-01T00:50:55;11.98;;;5.82;;
75261;SDS011;63859;51.064;4.580;2023-08-01T00:53:22;9.80;;;5.40;;
75261;SDS011;63859;51.064;4.580;2023-08-01T00:55:49;10.55;;;5.75;;
75261;SDS011;63859;51.064;4.580;2023-08-01T00:58:18;12.63;;;5.38;;
75261;SDS011;63859;51.064;4.580;2023-08-01T01:00:45;12.23;;;5.55;;
75261;SDS011;63859;51.064;4.580;2023-08-01T01:03:11;13.38;;;6.38;;
75261;SDS011;63859;51.064;4.580;2023-08-01T01:05:38;9.98;;;5.97;;
75261;SDS011;63859;51.064;4.580;2023-08-01T01:08:08;13.40;;;6.63;;
75261;SDS011;63859;51.064;4.580;2023-08-01T01:10:34;15.75;;;6.88;;
75261;SDS011;63859;51.064;4.580;2023-08-01T01:12:59;12.02;;;6.20;;
75261;SDS011;63859;51.064;4.580;2023-08-01T01:15:25;11.05;;;6.57;;
75261;SDS011;63859;51.064;4.580;2023-08-01T01:17:51;9.35;;;6.22;;
75261;SDS011;63859;51.064;4.580;2023-08-01T01:20:22;11.68;;;6.70;;
75261;SDS011;63859;51.064;4.580;2023-08-01T01:22:52;11.32;;;6.38;;
75261;SDS011;63859;51.064;4.580;2023-08-01T01:25:19;15.18;;;7.07;;
75261;SDS011;63859;51.064;4.580;2023-08-01T01:27:47;16.33;;;6.63;;
75261;SDS011;63859;51.064;4.580;2023-08-01T01:30:14;15.00;;;6.72;;
75261;SDS011;63859;51.064;4.580;2023-08-01T01:32:41;13.23;;;6.45;;
75261;SDS011;63859;51.064;4.580;2023-08-01T01:35:07;14.25;;;6.30;;
75261;SDS011;63859;51.064;4.580;2023-08-01T01:37:33;10.00;;;6.57;;
75261;SDS011;63859;51.064;4.580;2023-08-01T01:39:58;11.90;;;6.43;;
75261;SDS011;63859;51.064;4.580;2023-08-01T01:42:24;13.32;;;6.90;;
75261;SDS011;63859;51.064;4.580;2023-08-01T01:44:49;13.93;;;7.30;;
75261;SDS011;63859;51.064;4.580;2023-08-01T01:47:15;14.27;;;7.40;;
75261;SDS011;63859;51.064;4.580;2023-08-01T01:49:42;14.35;;;7.10;;
75261;SDS011;63859;51.064;4.580;2023-08-01T01:52:07;19.85;;;7.72;;
75261;SDS011;63859;51.064;4.580;2023-08-01T01:54:33;14.20;;;7.10;;
75261;SDS011;63859;51.064;4.580;2023-08-01T01:56:58;13.13;;;7.35;;
75261;SDS011;63859;51.064;4.580;2023-08-01T01:59:24;13.82;;;6.65;;
75261;SDS011;63859;51.064;4.580;2023-08-01T02:01:50;14.45;;;6.93;;
75261;SDS011;63859;51.064;4.580;2023-08-01T02:04:15;15.25;;;8.05;;
75261;SDS011;63859;51.064;4.580;2023-08-01T02:06:41;16.98;;;7.35;;
75261;SDS011;63859;51.064;4.580;2023-08-01T02:09:06;17.50;;;7.07;;
75261;SDS011;63859;51.064;4.580;2023-08-01T02:11:32;19.70;;;7.75;;
75261;SDS011;63859;51.064;4.580;2023-08-01T02:13:58;12.48;;;6.95;;
75261;SDS011;63859;51.064;4.580;2023-08-01T02:16:23;22.17;;;7.85;;
75261;SDS011;63859;51.064;4.580;2023-08-01T02:18:49;17.98;;;7.82;;
75261;SDS011;63859;51.064;4.580;2023-08-01T02:21:15;15.35;;;7.72;;
75261;SDS011;63859;51.064;4.580;2023-08-01T02:23:40;18.88;;;8.30;;
75261;SDS011;63859;51.064;4.580;2023-08-01T02:26:06;15.80;;;7.90;;
75261;SDS011;63859;51.064;4.580;2023-08-01T02:28:33;19.67;;;7.32;;
75261;SDS011;63859;51.064;4.580;2023-08-01T02:30:58;18.52;;;7.55;;
75261;SDS011;63859;51.064;4.580;2023-08-01T02:33:24;14.82;;;8.93;;
75261;SDS011;63859;51.064;4.580;2023-08-01T02:35:50;16.08;;;8.13;;
75261;SDS011;63859;51.064;4.580;2023-08-01T02:38:15;15.30;;;7.97;;
75261;SDS011;63859;51.064;4.580;2023-08-01T02:40:41;17.08;;;8.25;;
75261;SDS011;63859;51.064;4.580;2023-08-01T02:43:07;18.77;;;8.20;;
75261;SDS011;63859;51.064;4.580;2023-08-01T02:45:32;14.98;;;8.60;;
75261;SDS011;63859;51.064;4.580;2023-08-01T02:47:58;17.88;;;9.27;;
75261;SDS011;63859;51.064;4.580;2023-08-01T02:50:24;20.10;;;9.32;;
75261;SDS011;63859;51.064;4.580;2023-08-01T02:52:49;22.98;;;10.65;;
75261;SDS011;63859;51.064;4.580;2023-08-01T02:55:15;17.30;;;10.07;;
75261;SDS011;63859;51.064;4.580;2023-08-01T02:57:41;18.83;;;9.88;;
75261;SDS011;63859;51.064;4.580;2023-08-01T03:00:07;18.20;;;9.70;;
75261;SDS011;63859;51.064;4.580;2023-08-01T03:02:36;21.10;;;10.02;;
75261;SDS011;63859;51.064;4.580;2023-08-01T03:05:03;20.10;;;9.65;;
75261;SDS011;63859;51.064;4.580;2023-08-01T03:07:31;22.73;;;11.13;;
75261;SDS011;63859;51.064;4.580;2023-08-01T03:09:56;22.33;;;10.82;;
75261;SDS011;63859;51.064;4.580;2023-08-01T03:12:22;18.85;;;11.32;;
75261;SDS011;63859;51.064;4.580;2023-08-01T03:14:47;23.08;;;11.40;;
75261;SDS011;63859;51.064;4.580;2023-08-01T03:17:13;22.02;;;11.88;;
75261;SDS011;63859;51.064;4.580;2023-08-01T03:19:39;21.80;;;11.75;;
75261;SDS011;63859;51.064;4.580;2023-08-01T03:22:04;22.55;;;12.32;;
75261;SDS011;63859;51.064;4.580;2023-08-01T03:24:30;28.15;;;12.73;;
75261;SDS011;63859;51.064;4.580;2023-08-01T03:26:56;28.15;;;12.52;;
75261;SDS011;63859;51.064;4.580;2023-08-01T03:29:22;25.15;;;11.88;;
75261;SDS011;63859;51.064;4.580;2023-08-01T03:31:47;24.35;;;12.93;;
75261;SDS011;63859;51.064;4.580;2023-08-01T03:34:13;24.90;;;12.35;;
75261;SDS011;63859;51.064;4.580;2023-08-01T03:36:39;25.80;;;12.05;;
75261;SDS011;63859;51.064;4.580;2023-08-01T03:39:04;27.48;;;12.27;;
75261;SDS011;63859;51.064;4.580;2023-08-01T03:41:31;23.35;;;11.90;;
75261;SDS011;63859;51.064;4.580;2023-08-01T03:43:57;26.95;;;12.52;;
75261;SDS011;63859;51.064;4.580;2023-08-01T03:46:23;27.83;;;12.65;;
75261;SDS011;63859;51.064;4.580;2023-08-01T03:48:48;27.35;;;12.30;;
75261;SDS011;63859;51.064;4.580;2023-08-01T03:51:14;25.02;;;12.93;;
75261;SDS011;63859;51.064;4.580;2023-08-01T03:53:40;30.67;;;13.73;;
75261;SDS011;63859;51.064;4.580;2023-08-01T03:56:07;25.55;;;13.45;;
75261;SDS011;63859;51.064;4.580;2023-08-01T03:58:32;21.77;;;12.45;;
75261;SDS011;63859;51.064;4.580;2023-08-01T04:00:58;23.88;;;13.00;;
75261;SDS011;63859;51.064;4.580;2023-08-01T04:03:24;27.42;;;13.52;;
75261;SDS011;63859;51.064;4.580;2023-08-01T04:05:49;27.70;;;13.85;;
75261;SDS011;63859;51.064;4.580;2023-08-01T04:08:15;26.02;;;13.45;;
75261;SDS011;63859;51.064;4.580;2023-08-01T04:10:40;26.67;;;14.07;;
75261;SDS011;63859;51.064;4.580;2023-08-01T04:13:06;30.92;;;13.90;;
75261;SDS011;63859;51.064;4.580;2023-08-01T04:15:32;28.65;;;14.88;;
75261;SDS011;63859;51.064;4.580;2023-08-01T04:17:57;22.75;;;13.25;;
75261;SDS011;63859;51.064;4.580;2023-08-01T04:20:23;22.60;;;13.65;;
75261;SDS011;63859;51.064;4.580;2023-08-01T04:22:49;28.40;;;13.60;;
75261;SDS011;63859;51.064;4.580;2023-08-01T04:25:14;27.08;;;13.80;;
75261;SDS011;63859;51.064;4.580;2023-08-01T04:27:40;26.30;;;12.60;;
75261;SDS011;63859;51.064;4.580;2023-08-01T04:30:06;30.58;;;13.43;;
75261;SDS011;63859;51.064;4.580;2023-08-01T04:32:32;25.42;;;13.27;;
75261;SDS011;63859;51.064;4.580;2023-08-01T04:34:57;26.85;;;12.57;;
75261;SDS011;63859;51.064;4.580;2023-08-01T04:37:23;26.48;;;11.88;;
75261;SDS011;63859;51.064;4.580;2023-08-01T04:39:50;25.50;;;12.25;;
75261;SDS011;63859;51.064;4.580;2023-08-01T04:42:16;19.92;;;11.85;;
75261;SDS011;63859;51.064;4.580;2023-08-01T04:44:45;27.15;;;12.20;;
75261;SDS011;63859;51.064;4.580;2023-08-01T04:47:11;26.92;;;12.30;;
75261;SDS011;63859;51.064;4.580;2023-08-01T04:49:36;30.02;;;12.25;;
75261;SDS011;63859;51.064;4.580;2023-08-01T04:52:02;24.88;;;11.82;;
75261;SDS011;63859;51.064;4.580;2023-08-01T04:54:28;21.00;;;11.02;;
75261;SDS011;63859;51.064;4.580;2023-08-01T04:56:53;30.17;;;11.48;;
75261;SDS011;63859;51.064;4.580;2023-08-01T04:59:19;21.98;;;11.77;;
75261;SDS011;63859;51.064;4.580;2023-08-01T05:01:45;16.52;;;9.27;;
75261;SDS011;63859;51.064;4.580;2023-08-01T05:04:10;19.33;;;10.63;;
75261;SDS011;63859;51.064;4.580;2023-08-01T05:06:36;27.58;;;11.30;;
75261;SDS011;63859;51.064;4.580;2023-08-01T05:09:02;21.10;;;10.50;;
75261;SDS011;63859;51.064;4.580;2023-08-01T05:11:27;23.52;;;9.52;;
75261;SDS011;63859;51.064;4.580;2023-08-01T05:13:53;18.80;;;9.90;;
75261;SDS011;63859;51.064;4.580;2023-08-01T05:16:19;22.85;;;9.93;;
75261;SDS011;63859;51.064;4.580;2023-08-01T05:18:44;20.98;;;10.20;;
75261;SDS011;63859;51.064;4.580;2023-08-01T05:21:10;23.48;;;10.48;;
75261;SDS011;63859;51.064;4.580;2023-08-01T05:23:36;25.95;;;10.63;;
75261;SDS011;63859;51.064;4.580;2023-08-01T05:26:01;22.13;;;10.43;;
75261;SDS011;63859;51.064;4.580;2023-08-01T05:28:27;22.33;;;9.88;;
75261;SDS011;63859;51.064;4.580;2023-08-01T05:30:53;23.95;;;10.40;;
75261;SDS011;63859;51.064;4.580;2023-08-01T05:33:19;26.63;;;11.32;;
75261;SDS011;63859;51.064;4.580;2023-08-01T05:35:44;21.50;;;10.00;;
75261;SDS011;63859;51.064;4.580;2023-08-01T05:38:10;20.08;;;10.15;;
75261;SDS011;63859;51.064;4.580;2023-08-01T05:40:36;21.00;;;10.70;;
75261;SDS011;63859;51.064;4.580;2023-08-01T05:43:01;22.38;;;9.93;;
75261;SDS011;63859;51.064;4.580;2023-08-01T05:45:29;17.80;;;7.82;;
75261;SDS011;63859;51.064;4.580;2023-08-01T05:47:54;19.50;;;10.00;;
75261;SDS011;63859;51.064;4.580;2023-08-01T05:50:20;22.20;;;10.13;;
75261;SDS011;63859;51.064;4.580;2023-08-01T05:52:46;20.38;;;9.50;;
75261;SDS011;63859;51.064;4.580;2023-08-01T05:55:11;24.35;;;10.07;;
75261;SDS011;63859;51.064;4.580;2023-08-01T05:57:37;24.77;;;9.68;;
75261;SDS011;63859;51.064;4.580;2023-08-01T06:00:03;33.25;;;9.93;;
75261;SDS011;63859;51.064;4.580;2023-08-01T06:02:28;17.52;;;8.73;;
75261;SDS011;63859;51.064;4.580;2023-08-01T06:04:54;18.33;;;8.90;;
75261;SDS011;63859;51.064;4.580;2023-08-01T06:07:20;18.75;;;8.82;;
75261;SDS011;63859;51.064;4.580;2023-08-01T06:09:48;18.95;;;9.07;;
75261;SDS011;63859;51.064;4.580;2023-08-01T06:12:16;21.58;;;9.00;;
75261;SDS011;63859;51.064;4.580;2023-08-01T06:14:43;21.90;;;8.68;;
75261;SDS011;63859;51.064;4.580;2023-08-01T06:17:08;20.20;;;8.80;;
75261;SDS011;63859;51.064;4.580;2023-08-01T06:19:34;21.50;;;9.07;;
75261;SDS011;63859;51.064;4.580;2023-08-01T06:22:00;19.10;;;9.25;;
75261;SDS011;63859;51.064;4.580;2023-08-01T06:24:25;22.55;;;9.10;;
75261;SDS011;63859;51.064;4.580;2023-08-01T06:26:51;21.45;;;9.40;;
75261;SDS011;63859;51.064;4.580;2023-08-01T06:29:17;25.58;;;9.43;;
75261;SDS011;63859;51.064;4.580;2023-08-01T06:31:42;17.40;;;8.18;;
75261;SDS011;63859;51.064;4.580;2023-08-01T06:34:08;19.98;;;8.93;;
75261;SDS011;63859;51.064;4.580;2023-08-01T06:36:34;21.77;;;8.98;;
75261;SDS011;63859;51.064;4.580;2023-08-01T06:39:00;19.40;;;8.93;;
75261;SDS011;63859;51.064;4.580;2023-08-01T06:41:26;20.02;;;9.43;;
75261;SDS011;63859;51.064;4.580;2023-08-01T06:43:51;18.85;;;9.40;;
75261;SDS011;63859;51.064;4.580;2023-08-01T06:46:17;21.92;;;9.40;;
75261;SDS011;63859;51.064;4.580;2023-08-01T06:48:43;16.48;;;9.77;;
75261;SDS011;63859;51.064;4.580;2023-08-01T06:51:08;18.27;;;9.65;;
75261;SDS011;63859;51.064;4.580;2023-08-01T06:53:34;23.15;;;8.77;;
75261;SDS011;63859;51.064;4.580;2023-08-01T06:56:00;22.02;;;9.30;;
75261;SDS011;63859;51.064;4.580;2023-08-01T06:58:25;21.13;;;9.98;;
75261;SDS011;63859;51.064;4.580;2023-08-01T07:00:52;17.90;;;8.98;;
75261;SDS011;63859;51.064;4.580;2023-08-01T07:03:18;17.70;;;8.57;;
75261;SDS011;63859;51.064;4.580;2023-08-01T07:05:43;27.27;;;8.57;;
75261;SDS011;63859;51.064;4.580;2023-08-01T07:08:09;12.15;;;7.55;;
75261;SDS011;63859;51.064;4.580;2023-08-01T07:10:35;20.35;;;8.10;;
75261;SDS011;63859;51.064;4.580;2023-08-01T07:13:01;16.05;;;7.95;;
75261;SDS011;63859;51.064;4.580;2023-08-01T07:15:29;17.92;;;8.38;;
75261;SDS011;63859;51.064;4.580;2023-08-01T07:17:55;19.75;;;8.23;;
75261;SDS011;63859;51.064;4.580;2023-08-01T07:20:22;16.88;;;8.23;;
75261;SDS011;63859;51.064;4.580;2023-08-01T07:22:47;21.13;;;7.55;;
75261;SDS011;63859;51.064;4.580;2023-08-01T07:25:13;21.40;;;7.68;;
75261;SDS011;63859;51.064;4.580;2023-08-01T07:27:40;18.67;;;7.55;;
75261;SDS011;63859;51.064;4.580;2023-08-01T07:30:06;18.63;;;7.32;;
75261;SDS011;63859;51.064;4.580;2023-08-01T07:32:32;17.02;;;6.95;;
75261;SDS011;63859;51.064;4.580;2023-08-01T07:34:58;17.50;;;7.93;;
75261;SDS011;63859;51.064;4.580;2023-08-01T07:37:23;15.70;;;6.90;;
75261;SDS011;63859;51.064;4.580;2023-08-01T07:39:49;15.25;;;6.70;;
75261;SDS011;63859;51.064;4.580;2023-08-01T07:42:15;14.88;;;6.60;;
75261;SDS011;63859;51.064;4.580;2023-08-01T07:44:41;13.75;;;7.10;;
75261;SDS011;63859;51.064;4.580;2023-08-01T07:47:06;16.58;;;6.68;;
75261;SDS011;63859;51.064;4.580;2023-08-01T07:49:33;17.63;;;6.63;;
75261;SDS011;63859;51.064;4.580;2023-08-01T07:51:58;16.27;;;6.38;;
75261;SDS011;63859;51.064;4.580;2023-08-01T07:54:24;13.00;;;5.78;;
75261;SDS011;63859;51.064;4.580;2023-08-01T07:56:50;18.77;;;6.47;;
75261;SDS011;63859;51.064;4.580;2023-08-01T07:59:15;21.02;;;7.03;;
75261;SDS011;63859;51.064;4.580;2023-08-01T08:01:41;15.43;;;6.25;;
75261;SDS011;63859;51.064;4.580;2023-08-01T08:04:07;15.65;;;6.45;;
75261;SDS011;63859;51.064;4.580;2023-08-01T08:06:32;11.93;;;5.80;;
75261;SDS011;63859;51.064;4.580;2023-08-01T08:08:58;15.40;;;5.90;;
75261;SDS011;63859;51.064;4.580;2023-08-01T08:11:24;13.82;;;6.28;;
75261;SDS011;63859;51.064;4.580;2023-08-01T08:13:49;16.33;;;5.63;;
75261;SDS011;63859;51.064;4.580;2023-08-01T08:16:15;11.82;;;5.65;;
75261;SDS011;63859;51.064;4.580;2023-08-01T08:18:41;15.63;;;6.30;;
75261;SDS011;63859;51.064;4.580;2023-08-01T08:21:07;17.52;;;7.07;;
75261;SDS011;63859;51.064;4.580;2023-08-01T08:23:32;12.15;;;5.93;;
75261;SDS011;63859;51.064;4.580;2023-08-01T08:25:58;12.32;;;5.88;;
75261;SDS011;63859;51.064;4.580;2023-08-01T08:28:28;13.57;;;5.18;;
75261;SDS011;63859;51.064;4.580;2023-08-01T08:30:55;14.68;;;5.43;;
75261;SDS011;63859;51.064;4.580;2023-08-01T08:33:21;18.20;;;6.00;;
75261;SDS011;63859;51.064;4.580;2023-08-01T08:35:47;15.13;;;5.97;;
75261;SDS011;63859;51.064;4.580;2023-08-01T08:38:13;17.35;;;5.72;;
75261;SDS011;63859;51.064;4.580;2023-08-01T08:40:43;11.82;;;5.03;;
75261;SDS011;63859;51.064;4.580;2023-08-01T08:43:33;12.68;;;5.32;;
75261;SDS011;63859;51.064;4.580;2023-08-01T08:46:00;10.35;;;4.60;;
75261;SDS011;63859;51.064;4.580;2023-08-01T08:48:26;14.52;;;4.38;;
75261;SDS011;63859;51.064;4.580;2023-08-01T08:50:54;13.32;;;4.55;;
75261;SDS011;63859;51.064;4.580;2023-08-01T08:53:25;10.27;;;4.57;;
75261;SDS011;63859;51.064;4.580;2023-08-01T08:55:51;9.73;;;5.13;;
75261;SDS011;63859;51.064;4.580;2023-08-01T08:58:17;13.38;;;5.07;;
75261;SDS011;63859;51.064;4.580;2023-08-01T09:00:44;13.18;;;4.80;;
75261;SDS011;63859;51.064;4.580;2023-08-01T09:03:10;11.35;;;5.03;;
75261;SDS011;63859;51.064;4.580;2023-08-01T09:05:48;9.88;;;4.88;;
75261;SDS011;63859;51.064;4.580;2023-08-01T09:08:17;13.00;;;5.15;;
75261;SDS011;63859;51.064;4.580;2023-08-01T09:10:45;11.32;;;4.50;;
75261;SDS011;63859;51.064;4.580;2023-08-01T09:13:12;7.07;;;3.83;;
75261;SDS011;63859;51.064;4.580;2023-08-01T09:15:37;6.97;;;3.58;;
75261;SDS011;63859;51.064;4.580;2023-08-01T09:18:08;6.32;;;3.67;;
75261;SDS011;63859;51.064;4.580;2023-08-01T09:20:43;10.23;;;3.88;;
75261;SDS011;63859;51.064;4.580;2023-08-01T09:23:14;9.68;;;3.80;;
75261;SDS011;63859;51.064;4.580;2023-08-01T09:25:42;9.25;;;3.35;;
75261;SDS011;63859;51.064;4.580;2023-08-01T09:28:18;9.35;;;3.60;;
75261;SDS011;63859;51.064;4.580;2023-08-01T09:30:46;7.13;;;3.53;;
75261;SDS011;63859;51.064;4.580;2023-08-01T09:33:13;8.02;;;4.25;;
75261;SDS011;63859;51.064;4.580;2023-08-01T09:35:39;9.93;;;3.80;;
75261;SDS011;63859;51.064;4.580;2023-08-01T09:38:04;6.43;;;3.25;;
75261;SDS011;63859;51.064;4.580;2023-08-01T09:40:36;17.17;;;4.13;;
75261;SDS011;63859;51.064;4.580;2023-08-01T09:43:03;11.88;;;3.88;;
75261;SDS011;63859;51.064;4.580;2023-08-01T09:45:29;11.60;;;4.68;;
75261;SDS011;63859;51.064;4.580;2023-08-01T09:47:54;9.20;;;4.80;;
75261;SDS011;63859;51.064;4.580;2023-08-01T09:50:21;11.38;;;4.95;;
75261;SDS011;63859;51.064;4.580;2023-08-01T09:52:48;13.48;;;5.00;;
75261;SDS011;63859;51.064;4.580;2023-08-01T09:55:40;6.93;;;4.40;;
75261;SDS011;63859;51.064;4.580;2023-08-01T09:58:08;13.75;;;5.45;;
75261;SDS011;63859;51.064;4.580;2023-08-01T10:00:38;10.70;;;5.18;;
75261;SDS011;63859;51.064;4.580;2023-08-01T10:03:03;12.23;;;4.93;;
75261;SDS011;63859;51.064;4.580;2023-08-01T10:05:31;8.68;;;4.45;;
75261;SDS011;63859;51.064;4.580;2023-08-01T10:08:00;11.93;;;5.32;;
75261;SDS011;63859;51.064;4.580;2023-08-01T10:10:27;9.73;;;5.43;;
75261;SDS011;63859;51.064;4.580;2023-08-01T10:12:56;6.80;;;4.70;;
75261;SDS011;63859;51.064;4.580;2023-08-01T10:15:23;7.10;;;4.03;;
75261;SDS011;63859;51.064;4.580;2023-08-01T10:17:50;7.97;;;3.90;;
75261;SDS011;63859;51.064;4.580;2023-08-01T10:20:16;5.05;;;3.05;;
75261;SDS011;63859;51.064;4.580;2023-08-01T10:22:43;10.40;;;3.40;;
75261;SDS011;63859;51.064;4.580;2023-08-01T10:25:09;16.05;;;3.25;;
75261;SDS011;63859;51.064;4.580;2023-08-01T10:27:36;7.85;;;2.90;;
75261;SDS011;63859;51.064;4.580;2023-08-01T10:30:03;6.82;;;2.85;;
75261;SDS011;63859;51.064;4.580;2023-08-01T10:32:36;8.30;;;3.03;;
75261;SDS011;63859;51.064;4.580;2023-08-01T10:35:03;6.93;;;2.88;;
75261;SDS011;63859;51.064;4.580;2023-08-01T10:37:45;5.90;;;2.60;;
75261;SDS011;63859;51.064;4.580;2023-08-01T10:40:14;8.90;;;3.33;;
75261;SDS011;63859;51.064;4.580;2023-08-01T10:42:40;9.07;;;3.42;;
75261;SDS011;63859;51.064;4.580;2023-08-01T10:45:07;7.00;;;3.38;;
75261;SDS011;63859;51.064;4.580;2023-08-01T10:47:44;7.88;;;2.95;;
75261;SDS011;63859;51.064;4.580;2023-08-01T10:50:13;10.63;;;3.03;;
75261;SDS011;63859;51.064;4.580;2023-08-01T10:52:43;6.40;;;2.97;;
75261;SDS011;63859;51.064;4.580;2023-08-01T10:55:09;7.13;;;3.25;;
75261;SDS011;63859;51.064;4.580;2023-08-01T10:57:36;8.10;;;2.97;;
75261;SDS011;63859;51.064;4.580;2023-08-01T11:00:04;10.80;;;3.22;;
75261;SDS011;63859;51.064;4.580;2023-08-01T11:02:35;10.25;;;3.30;;
75261;SDS011;63859;51.064;4.580;2023-08-01T11:05:03;8.23;;;3.30;;
75261;SDS011;63859;51.064;4.580;2023-08-01T11:07:30;7.03;;;3.03;;
75261;SDS011;63859;51.064;4.580;2023-08-01T11:12:30;7.60;;;3.00;;
75261;SDS011;63859;51.064;4.580;2023-08-01T11:15:07;6.22;;;2.72;;
75261;SDS011;63859;51.064;4.580;2023-08-01T11:17:38;10.20;;;3.58;;
75261;SDS011;63859;51.064;4.580;2023-08-01T11:20:06;7.95;;;2.90;;
75261;SDS011;63859;51.064;4.580;2023-08-01T11:22:35;11.35;;;3.30;;
75261;SDS011;63859;51.064;4.580;2023-08-01T11:25:01;7.03;;;2.97;;
75261;SDS011;63859;51.064;4.580;2023-08-01T11:27:28;6.68;;;2.95;;
75261;SDS011;63859;51.064;4.580;2023-08-01T11:29:54;10.48;;;3.30;;
75261;SDS011;63859;51.064;4.580;2023-08-01T11:32:21;9.23;;;3.50;;
75261;SDS011;63859;51.064;4.580;2023-08-01T11:34:48;8.77;;;3.25;;
75261;SDS011;63859;51.064;4.580;2023-08-01T11:37:14;9.63;;;3.08;;
75261;SDS011;63859;51.064;4.580;2023-08-01T11:39:43;9.05;;;3.03;;
75261;SDS011;63859;51.064;4.580;2023-08-01T11:42:16;8.38;;;2.60;;
75261;SDS011;63859;51.064;4.580;2023-08-01T11:44:42;7.53;;;2.90;;
75261;SDS011;63859;51.064;4.580;2023-08-01T11:47:15;9.68;;;2.65;;
75261;SDS011;63859;51.064;4.580;2023-08-01T11:49:45;8.90;;;2.80;;
75261;SDS011;63859;51.064;4.580;2023-08-01T11:52:22;9.32;;;2.75;;
75261;SDS011;63859;51.064;4.580;2023-08-01T11:54:52;7.75;;;3.00;;
75261;SDS011;63859;51.064;4.580;2023-08-01T11:57:20;7.85;;;2.83;;
75261;SDS011;63859;51.064;4.580;2023-08-01T11:59:50;9.13;;;2.58;;
75261;SDS011;63859;51.064;4.580;2023-08-01T12:04:49;5.95;;;2.30;;
75261;SDS011;63859;51.064;4.580;2023-08-01T12:07:16;6.20;;;2.40;;
75261;SDS011;63859;51.064;4.580;2023-08-01T12:09:42;6.15;;;2.22;;
75261;SDS011;63859;51.064;4.580;2023-08-01T12:12:09;9.68;;;2.40;;
75261;SDS011;63859;51.064;4.580;2023-08-01T12:14:41;10.45;;;2.80;;
75261;SDS011;63859;51.064;4.580;2023-08-01T12:17:07;9.50;;;2.65;;
75261;SDS011;63859;51.064;4.580;2023-08-01T12:19:33;5.40;;;2.13;;
75261;SDS011;63859;51.064;4.580;2023-08-01T12:22:01;8.10;;;2.38;;
75261;SDS011;63859;51.064;4.580;2023-08-01T12:24:27;5.18;;;1.90;;
75261;SDS011;63859;51.064;4.580;2023-08-01T12:26:52;4.53;;;1.50;;
75261;SDS011;63859;51.064;4.580;2023-08-01T12:29:18;3.50;;;1.55;;
75261;SDS011;63859;51.064;4.580;2023-08-01T12:31:44;6.60;;;2.00;;
75261;SDS011;63859;51.064;4.580;2023-08-01T12:34:11;5.25;;;2.08;;
75261;SDS011;63859;51.064;4.580;2023-08-01T12:36:36;7.97;;;2.15;;
75261;SDS011;63859;51.064;4.580;2023-08-01T12:39:02;10.15;;;2.22;;
75261;SDS011;63859;51.064;4.580;2023-08-01T12:41:28;6.18;;;2.28;;
75261;SDS011;63859;51.064;4.580;2023-08-01T12:43:54;9.07;;;2.33;;
75261;SDS011;63859;51.064;4.580;2023-08-01T12:46:19;7.90;;;2.30;;
75261;SDS011;63859;51.064;4.580;2023-08-01T12:48:45;5.65;;;2.05;;
75261;SDS011;63859;51.064;4.580;2023-08-01T12:51:11;4.97;;;2.10;;
75261;SDS011;63859;51.064;4.580;2023-08-01T12:53:39;3.85;;;2.00;;
75261;SDS011;63859;51.064;4.580;2023-08-01T12:56:05;6.13;;;2.05;;
75261;SDS011;63859;51.064;4.580;2023-08-01T12:58:30;4.13;;;1.50;;
75261;SDS011;63859;51.064;4.580;2023-08-01T13:00:57;5.47;;;2.10;;
75261;SDS011;63859;51.064;4.580;2023-08-01T13:03:22;2.70;;;1.58;;
75261;SDS011;63859;51.064;4.580;2023-08-01T13:05:48;4.57;;;1.77;;
75261;SDS011;63859;51.064;4.580;2023-08-01T13:08:13;3.33;;;1.45;;
75261;SDS011;63859;51.064;4.580;2023-08-01T13:10:39;3.45;;;1.73;;
75261;SDS011;63859;51.064;4.580;2023-08-01T13:13:05;4.88;;;1.60;;
75261;SDS011;63859;51.064;4.580;2023-08-01T13:15:31;3.42;;;1.73;;
75261;SDS011;63859;51.064;4.580;2023-08-01T13:17:57;6.05;;;1.70;;
75261;SDS011;63859;51.064;4.580;2023-08-01T13:20:22;2.63;;;1.52;;
75261;SDS011;63859;51.064;4.580;2023-08-01T13:22:49;4.50;;;1.85;;
75261;SDS011;63859;51.064;4.580;2023-08-01T13:25:15;4.50;;;1.98;;
75261;SDS011;63859;51.064;4.580;2023-08-01T13:27:41;6.43;;;1.80;;
75261;SDS011;63859;51.064;4.580;2023-08-01T13:30:07;4.38;;;1.77;;
75261;SDS011;63859;51.064;4.580;2023-08-01T13:32:34;4.15;;;1.67;;
75261;SDS011;63859;51.064;4.580;2023-08-01T13:35:00;5.05;;;1.88;;
75261;SDS011;63859;51.064;4.580;2023-08-01T13:37:26;3.20;;;1.80;;
75261;SDS011;63859;51.064;4.580;2023-08-01T13:39:53;4.20;;;1.80;;
75261;SDS011;63859;51.064;4.580;2023-08-01T13:42:19;6.65;;;2.15;;
75261;SDS011;63859;51.064;4.580;2023-08-01T13:44:44;5.90;;;1.90;;
75261;SDS011;63859;51.064;4.580;2023-08-01T13:47:10;4.13;;;1.80;;
75261;SDS011;63859;51.064;4.580;2023-08-01T13:49:36;5.80;;;1.85;;
75261;SDS011;63859;51.064;4.580;2023-08-01T13:52:01;3.75;;;1.90;;
75261;SDS011;63859;51.064;4.580;2023-08-01T13:54:28;5.10;;;1.90;;
75261;SDS011;63859;51.064;4.580;2023-08-01T13:56:54;6.25;;;1.80;;
75261;SDS011;63859;51.064;4.580;2023-08-01T13:59:20;8.43;;;2.00;;
75261;SDS011;63859;51.064;4.580;2023-08-01T14:01:46;4.68;;;1.73;;
75261;SDS011;63859;51.064;4.580;2023-08-01T14:04:12;6.55;;;1.90;;
75261;SDS011;63859;51.064;4.580;2023-08-01T14:06:41;6.78;;;2.00;;
75261;SDS011;63859;51.064;4.580;2023-08-01T14:09:08;5.82;;;1.90;;
75261;SDS011;63859;51.064;4.580;2023-08-01T14:11:34;4.63;;;1.75;;
75261;SDS011;63859;51.064;4.580;2023-08-01T14:14:00;7.70;;;2.00;;
75261;SDS011;63859;51.064;4.580;2023-08-01T14:16:26;6.43;;;2.10;;
75261;SDS011;63859;51.064;4.580;2023-08-01T14:18:53;7.88;;;2.20;;
75261;SDS011;63859;51.064;4.580;2023-08-01T14:21:18;7.03;;;2.65;;
75261;SDS011;63859;51.064;4.580;2023-08-01T14:23:44;10.48;;;2.85;;
75261;SDS011;63859;51.064;4.580;2023-08-01T14:26:09;9.18;;;2.47;;
75261;SDS011;63859;51.064;4.580;2023-08-01T14:28:35;6.95;;;2.53;;
75261;SDS011;63859;51.064;4.580;2023-08-01T14:31:01;5.50;;;2.28;;
75261;SDS011;63859;51.064;4.580;2023-08-01T14:33:28;7.68;;;2.17;;
75261;SDS011;63859;51.064;4.580;2023-08-01T14:35:54;7.20;;;2.30;;
75261;SDS011;63859;51.064;4.580;2023-08-01T14:38:20;9.52;;;2.47;;